createdAt,value
2023-05-21T00:00:20.797Z,44.68
2023-05-21T00:02:49.818Z,44.66
2023-05-21T00:05:19.158Z,45.09
2023-05-21T00:07:47.299Z,45.20
2023-05-21T00:10:16.420Z,45.29
2023-05-21T00:12:43.106Z,45.25
2023-05-21T00:15:10.208Z,45.36
2023-05-21T00:17:41.949Z,45.83
2023-05-21T00:20:09.463Z,45.57
2023-05-21T00:22:36.411Z,46.02
2023-05-21T00:25:06.465Z,45.76
2023-05-21T00:27:33.232Z,45.67
2023-05-21T00:29:59.988Z,45.75
2023-05-21T00:32:26.724Z,46.21
2023-05-21T00:34:53.501Z,45.99
2023-05-21T00:37:20.916Z,46.16
2023-05-21T00:39:48.000Z,46.45
2023-05-21T00:42:18.335Z,46.95
2023-05-21T00:44:48.396Z,46.29
2023-05-21T00:47:18.367Z,46.76
2023-05-21T00:49:45.154Z,47.13
2023-05-21T00:52:12.098Z,47.17
2023-05-21T00:54:39.563Z,47.35
2023-05-21T00:57:08.551Z,47.60
2023-05-21T00:59:35.436Z,47.64
2023-05-21T01:02:05.577Z,47.49
2023-05-21T01:04:32.808Z,47.23
2023-05-21T01:06:59.625Z,47.64
2023-05-21T01:09:29.378Z,48.11
2023-05-21T01:11:56.750Z,48.32
2023-05-21T01:14:25.059Z,48.38
2023-05-21T01:16:57.092Z,48.56
2023-05-21T01:19:24.862Z,48.51
2023-05-21T01:22:04.322Z,49.07
2023-05-21T01:24:31.505Z,48.96
2023-05-21T01:27:00.146Z,48.85
2023-05-21T01:29:26.967Z,49.20
2023-05-21T01:32:11.198Z,49.42
2023-05-21T01:35:06.682Z,49.02
2023-05-21T01:37:46.200Z,49.46
2023-05-21T01:40:38.349Z,50.21
2023-05-21T01:43:07.082Z,49.77
2023-05-21T01:45:42.617Z,49.92
2023-05-21T01:48:10.314Z,50.79
2023-05-21T01:50:41.090Z,50.16
2023-05-21T01:53:07.989Z,50.14
2023-05-21T01:55:35.840Z,50.40
2023-05-21T01:58:04.962Z,50.37
2023-05-21T02:00:32.722Z,51.08
2023-05-21T02:03:02.142Z,51.10
2023-05-21T02:05:29.012Z,50.83
2023-05-21T02:07:55.955Z,50.98
2023-05-21T02:10:25.144Z,51.88
2023-05-21T02:12:52.029Z,51.74
2023-05-21T02:15:19.335Z,51.77
2023-05-21T02:17:46.718Z,51.68
2023-05-21T02:20:14.045Z,51.55
2023-05-21T02:22:41.804Z,51.28
2023-05-21T02:25:10.134Z,52.33
2023-05-21T02:27:37.862Z,52.41
2023-05-21T02:30:07.053Z,51.94
2023-05-21T02:32:42.536Z,52.05
2023-05-21T02:35:11.417Z,52.80
2023-05-21T02:37:40.545Z,52.44
2023-05-21T02:40:08.380Z,53.17
2023-05-21T02:42:36.655Z,52.77
2023-05-21T02:45:03.689Z,52.85
2023-05-21T02:47:30.498Z,53.08
2023-05-21T02:49:59.904Z,53.03
2023-05-21T02:52:26.719Z,54.47
2023-05-21T02:54:53.820Z,53.56
2023-05-21T02:57:21.012Z,53.66
2023-05-21T02:59:47.755Z,54.27
2023-05-21T03:02:16.791Z,53.99
2023-05-21T03:04:46.848Z,54.02
2023-05-21T03:07:14.929Z,54.31
2023-05-21T03:09:42.505Z,54.53
2023-05-21T03:12:09.577Z,54.74
2023-05-21T03:14:36.643Z,55.00
2023-05-21T03:17:06.510Z,55.50
2023-05-21T03:19:37.139Z,55.86
2023-05-21T03:22:04.721Z,55.12
2023-05-21T03:24:31.868Z,55.29
2023-05-21T03:26:59.434Z,55.80
2023-05-21T03:29:30.884Z,56.31
2023-05-21T03:31:58.146Z,55.96
2023-05-21T03:34:27.669Z,56.28
2023-05-21T03:36:54.292Z,56.00
2023-05-21T03:39:23.457Z,56.29
2023-05-21T03:41:50.209Z,56.81
2023-05-21T03:44:17.036Z,56.94
2023-05-21T03:46:45.575Z,56.95
2023-05-21T03:49:12.386Z,56.93
2023-05-21T03:51:39.753Z,57.64
2023-05-21T03:54:06.705Z,57.90
2023-05-21T03:56:38.209Z,57.93
2023-05-21T03:59:05.125Z,57.70
2023-05-21T04:01:33.185Z,58.31
2023-05-21T04:04:00.026Z,58.65
2023-05-21T04:06:26.786Z,59.07
2023-05-21T04:08:55.839Z,59.08
2023-05-21T04:11:22.680Z,59.03
2023-05-21T04:13:50.399Z,59.40
2023-05-21T04:16:19.373Z,59.68
2023-05-21T04:18:52.436Z,59.53
2023-05-21T04:21:19.243Z,60.06
2023-05-21T04:23:46.264Z,59.92
2023-05-21T04:26:13.278Z,60.40
2023-05-21T04:28:42.142Z,60.26
2023-05-21T04:31:13.062Z,60.26
2023-05-21T04:33:42.227Z,60.45
2023-05-21T04:36:12.044Z,61.18
2023-05-21T04:38:39.953Z,60.93
2023-05-21T04:41:10.982Z,60.82
2023-05-21T04:43:38.364Z,60.88
2023-05-21T04:46:07.760Z,60.65
2023-05-21T04:48:34.481Z,61.05
2023-05-21T04:51:01.102Z,60.90
2023-05-21T04:53:27.857Z,61.40
2023-05-21T04:55:54.526Z,61.30
2023-05-21T04:58:21.257Z,61.81
2023-05-21T05:00:50.900Z,61.70
2023-05-21T05:03:20.004Z,62.31
2023-05-21T05:05:47.310Z,61.95
2023-05-21T05:08:15.730Z,61.88
2023-05-21T05:10:43.029Z,62.41
2023-05-21T05:13:09.988Z,62.00
2023-05-21T05:15:37.163Z,61.89
2023-05-21T05:18:04.163Z,62.23
2023-05-21T05:20:30.941Z,62.51
2023-05-21T05:22:57.633Z,61.91
2023-05-21T05:25:26.924Z,61.89
2023-05-21T05:27:56.179Z,61.95
2023-05-21T05:30:25.117Z,61.85
2023-05-21T05:32:51.887Z,62.27
2023-05-21T05:35:21.086Z,62.12
2023-05-21T05:37:47.739Z,61.97
2023-05-21T05:40:14.568Z,62.05
2023-05-21T05:42:41.268Z,61.48
2023-05-21T05:45:08.505Z,61.39
2023-05-21T05:47:35.211Z,61.44
2023-05-21T05:50:02.123Z,61.47
2023-05-21T05:52:28.804Z,61.60
2023-05-21T05:55:00.271Z,61.40
2023-05-21T05:57:26.956Z,61.52
2023-05-21T05:59:56.347Z,61.65
2023-05-21T06:02:23.155Z,60.97
2023-05-21T06:04:50.028Z,61.26
2023-05-21T06:07:16.743Z,61.84
2023-05-21T06:09:45.848Z,59.92
2023-05-21T06:12:15.973Z,58.32
2023-05-21T06:14:45.166Z,56.45
2023-05-21T06:17:12.550Z,55.82
2023-05-21T06:19:42.084Z,54.82
2023-05-21T06:22:08.782Z,55.11
2023-05-21T06:24:40.249Z,54.94
2023-05-21T06:27:07.081Z,55.72
2023-05-21T06:29:33.861Z,54.76
2023-05-21T06:32:01.846Z,52.76
2023-05-21T06:34:28.998Z,52.20
2023-05-21T06:36:55.801Z,50.58
2023-05-21T06:39:25.204Z,49.38
2023-05-21T06:41:51.978Z,47.88
2023-05-21T06:44:18.754Z,46.39
2023-05-21T06:46:50.357Z,44.38
2023-05-21T06:49:19.281Z,43.49
2023-05-21T06:51:46.249Z,42.63
2023-05-21T06:54:13.164Z,42.26
2023-05-21T06:56:42.702Z,40.15
2023-05-21T06:59:12.184Z,40.64
2023-05-21T07:01:42.574Z,40.15
2023-05-21T07:04:10.136Z,38.67
2023-05-21T07:06:37.876Z,38.49
2023-05-21T07:09:07.422Z,37.05
2023-05-21T07:11:36.626Z,36.40
2023-05-21T07:14:04.099Z,35.52
2023-05-21T07:16:31.028Z,35.31
2023-05-21T07:19:00.042Z,35.54
2023-05-21T07:21:26.812Z,34.42
2023-05-21T07:23:53.486Z,33.90
2023-05-21T07:26:20.181Z,33.21
2023-05-21T07:28:47.033Z,32.57
2023-05-21T07:31:16.091Z,32.97
2023-05-21T07:33:42.938Z,32.83
2023-05-21T07:36:11.923Z,32.18
2023-05-21T07:38:40.278Z,31.67
2023-05-21T07:41:07.004Z,32.11
2023-05-21T07:43:36.040Z,31.27
2023-05-21T07:46:05.467Z,31.84
2023-05-21T07:48:35.530Z,31.26
2023-05-21T07:51:04.140Z,30.23
2023-05-21T07:53:33.599Z,29.84
2023-05-21T07:56:01.037Z,29.79
2023-05-21T07:58:27.801Z,29.46
2023-05-21T08:00:54.536Z,29.60
2023-05-21T08:03:21.334Z,28.82
2023-05-21T08:05:53.560Z,28.59
2023-05-21T08:08:22.141Z,28.48
2023-05-21T08:10:49.531Z,28.20
2023-05-21T08:13:17.258Z,28.53
2023-05-21T08:15:44.094Z,27.70
2023-05-21T08:18:13.066Z,26.72
2023-05-21T08:20:40.431Z,27.83
2023-05-21T08:23:09.635Z,27.16
2023-05-21T08:25:38.728Z,26.23
2023-05-21T08:28:05.858Z,26.99
2023-05-21T08:30:32.507Z,27.05
2023-05-21T08:33:02.492Z,26.74
2023-05-21T08:35:29.286Z,26.46
2023-05-21T08:37:58.983Z,26.37
2023-05-21T08:40:25.680Z,26.48
2023-05-21T08:42:52.537Z,26.56
2023-05-21T08:45:25.382Z,26.06
2023-05-21T08:48:00.021Z,25.80
2023-05-21T08:50:30.230Z,25.82
2023-05-21T08:52:58.984Z,25.95
2023-05-21T08:55:27.068Z,25.91
2023-05-21T08:57:55.219Z,25.82
2023-05-21T09:00:24.411Z,25.88
2023-05-21T09:02:54.623Z,25.92
2023-05-21T09:05:22.731Z,26.28
2023-05-21T09:08:13.931Z,25.90
2023-05-21T09:10:48.199Z,25.86
2023-05-21T09:13:17.339Z,26.63
2023-05-21T09:15:48.182Z,26.39
2023-05-21T09:18:15.329Z,26.36
2023-05-21T09:20:42.246Z,26.52
2023-05-21T09:23:16.833Z,26.53
2023-05-21T09:25:52.095Z,26.32
2023-05-21T09:28:19.702Z,26.90
2023-05-21T09:30:48.352Z,26.70
2023-05-21T09:33:29.817Z,27.07
2023-05-21T09:35:58.886Z,26.95
2023-05-21T09:38:29.610Z,27.33
2023-05-21T09:41:01.536Z,26.79
2023-05-21T09:43:28.847Z,27.01
2023-05-21T09:46:02.007Z,27.12
2023-05-21T09:48:43.076Z,26.51
2023-05-21T09:51:21.370Z,26.73
2023-05-21T09:53:54.378Z,26.72
2023-05-21T09:56:29.460Z,26.42
2023-05-21T09:58:57.781Z,26.26
2023-05-21T10:01:25.459Z,26.37
2023-05-21T10:03:57.329Z,27.05
2023-05-21T10:06:33.787Z,27.28
2023-05-21T10:09:05.953Z,26.87
2023-05-21T10:11:37.222Z,27.64
2023-05-21T10:14:09.202Z,27.22
2023-05-21T10:16:37.214Z,27.38
2023-05-21T10:19:05.402Z,28.00
2023-05-21T10:21:34.949Z,28.61
2023-05-21T10:24:05.114Z,28.63
2023-05-21T10:26:34.254Z,28.88
2023-05-21T10:29:02.452Z,29.06
2023-05-21T10:31:29.836Z,29.76
2023-05-21T10:33:57.189Z,30.00
2023-05-21T10:36:31.103Z,29.55
2023-05-21T10:39:00.239Z,29.93
2023-05-21T10:41:32.104Z,29.81
2023-05-21T10:44:11.257Z,29.61
2023-05-21T10:47:02.819Z,30.18
2023-05-21T10:49:51.981Z,29.42
2023-05-21T10:52:34.057Z,29.40
2023-05-21T10:55:32.991Z,29.83
2023-05-21T10:58:02.673Z,30.28
2023-05-21T11:00:31.683Z,30.21
2023-05-21T11:03:05.938Z,30.26
2023-05-21T11:06:02.710Z,29.80
2023-05-21T11:08:36.282Z,30.02
2023-05-21T11:11:08.558Z,30.17
2023-05-21T11:13:49.344Z,29.81
2023-05-21T11:16:17.194Z,29.79
2023-05-21T11:18:46.945Z,29.75
2023-05-21T11:21:21.142Z,30.18
2023-05-21T11:23:53.242Z,30.15
2023-05-21T11:26:24.473Z,30.43
2023-05-21T11:29:03.357Z,31.21
2023-05-21T11:31:38.425Z,31.71
2023-05-21T11:34:11.381Z,31.29
2023-05-21T11:36:39.125Z,31.93
2023-05-21T11:39:17.893Z,31.83
2023-05-21T11:41:53.539Z,32.25
2023-05-21T11:44:41.731Z,32.34
2023-05-21T11:47:10.172Z,31.57
2023-05-21T11:49:37.780Z,31.78
2023-05-21T11:52:06.564Z,31.68
2023-05-21T11:54:37.626Z,31.93
2023-05-21T11:57:10.638Z,31.52
2023-05-21T11:59:37.595Z,32.48
2023-05-21T12:02:05.068Z,32.52
2023-05-21T12:04:36.489Z,31.82
2023-05-21T12:07:09.756Z,32.40
2023-05-21T12:09:50.602Z,32.63
2023-05-21T12:12:22.434Z,32.11
2023-05-21T12:14:53.360Z,32.14
2023-05-21T12:17:22.165Z,32.93
2023-05-21T12:19:51.669Z,32.36
2023-05-21T12:22:21.527Z,31.83
2023-05-21T12:24:51.070Z,32.03
2023-05-21T12:27:20.490Z,32.39
2023-05-21T12:29:50.058Z,32.43
2023-05-21T12:32:22.666Z,32.54
2023-05-21T12:34:54.907Z,32.48
2023-05-21T12:37:31.452Z,33.43
2023-05-21T12:40:07.840Z,33.30
2023-05-21T12:42:37.721Z,33.36
2023-05-21T12:45:10.682Z,33.01
2023-05-21T12:47:37.861Z,33.70
2023-05-21T12:50:12.299Z,33.36
2023-05-21T12:52:42.979Z,32.58
2023-05-21T12:55:11.844Z,33.20
2023-05-21T12:57:39.112Z,33.34
2023-05-21T13:00:07.654Z,33.21
2023-05-21T13:02:42.679Z,33.34
2023-05-21T13:05:15.862Z,34.06
2023-05-21T13:07:44.166Z,33.98
2023-05-21T13:10:12.396Z,33.95
2023-05-21T13:12:41.186Z,34.15
2023-05-21T13:15:10.929Z,34.21
2023-05-21T13:17:37.767Z,34.04
2023-05-21T13:20:12.361Z,34.69
2023-05-21T13:22:47.634Z,34.63
2023-05-21T13:25:21.849Z,34.30
2023-05-21T13:27:49.974Z,33.87
2023-05-21T13:30:22.774Z,33.94
2023-05-21T13:32:49.947Z,34.30
2023-05-21T13:35:19.171Z,34.44
2023-05-21T13:37:46.086Z,34.33
2023-05-21T13:40:15.308Z,34.12
2023-05-21T13:42:44.102Z,34.09
2023-05-21T13:45:13.167Z,34.70
2023-05-21T13:47:40.731Z,34.64
2023-05-21T13:50:08.865Z,34.89
2023-05-21T13:52:36.094Z,34.16
2023-05-21T13:55:04.993Z,34.33
2023-05-21T13:57:34.140Z,34.63
2023-05-21T14:00:01.314Z,34.68
2023-05-21T14:02:30.924Z,34.51
2023-05-21T14:04:57.627Z,34.47
2023-05-21T14:07:24.425Z,34.43
2023-05-21T14:09:53.902Z,34.58
2023-05-21T14:12:20.760Z,34.73
2023-05-21T14:14:49.878Z,34.45
2023-05-21T14:17:16.961Z,34.49
2023-05-21T14:19:46.062Z,34.97
2023-05-21T14:22:13.262Z,35.18
2023-05-21T14:24:40.055Z,35.24
2023-05-21T14:27:06.717Z,35.45
2023-05-21T14:29:33.565Z,34.79
2023-05-21T14:32:00.308Z,35.28
2023-05-21T14:34:27.152Z,35.40
2023-05-21T14:36:56.162Z,35.29
2023-05-21T14:39:23.134Z,35.80
2023-05-21T14:41:52.377Z,34.99
2023-05-21T14:44:21.269Z,35.38
2023-05-21T14:46:48.072Z,35.52
2023-05-21T14:49:14.782Z,35.46
2023-05-21T14:51:43.783Z,35.26
2023-05-21T14:54:10.508Z,35.25
2023-05-21T14:56:39.716Z,35.65
2023-05-21T14:59:11.366Z,35.03
2023-05-21T15:01:38.342Z,34.73
2023-05-21T15:04:08.131Z,35.32
2023-05-21T15:06:37.456Z,35.33
2023-05-21T15:09:04.221Z,35.08
2023-05-21T15:11:31.034Z,35.66
2023-05-21T15:13:59.932Z,35.62
2023-05-21T15:16:28.956Z,35.16
2023-05-21T15:18:56.073Z,35.27
2023-05-21T15:21:27.834Z,35.68
2023-05-21T15:23:54.773Z,35.77
2023-05-21T15:26:21.773Z,35.34
2023-05-21T15:28:48.676Z,35.89
2023-05-21T15:31:15.440Z,35.57
2023-05-21T15:33:45.288Z,35.70
2023-05-21T15:36:12.071Z,35.82
2023-05-21T15:38:38.792Z,36.15
2023-05-21T15:41:08.394Z,36.39
2023-05-21T15:43:35.731Z,36.33
2023-05-21T15:46:02.735Z,36.18
2023-05-21T15:48:29.551Z,36.04
2023-05-21T15:50:58.543Z,36.38
2023-05-21T15:53:25.328Z,36.16
2023-05-21T15:55:52.090Z,36.34
2023-05-21T15:58:19.092Z,36.37
2023-05-21T16:00:48.964Z,36.31
2023-05-21T16:03:17.806Z,36.62
2023-05-21T16:05:44.568Z,36.35
2023-05-21T16:08:12.246Z,36.39
2023-05-21T16:10:40.072Z,36.13
2023-05-21T16:13:09.084Z,36.75
2023-05-21T16:15:36.156Z,36.83
2023-05-21T16:18:03.158Z,36.51
2023-05-21T16:20:30.889Z,36.89
2023-05-21T16:22:57.561Z,36.69
2023-05-21T16:25:26.582Z,36.80
2023-05-21T16:27:53.251Z,36.93
2023-05-21T16:30:20.098Z,37.01
2023-05-21T16:32:46.805Z,37.25
2023-05-21T16:35:15.789Z,37.25
2023-05-21T16:37:42.500Z,36.88
2023-05-21T16:40:09.865Z,36.51
2023-05-21T16:42:39.902Z,36.34
2023-05-21T16:45:07.042Z,36.76
2023-05-21T16:47:33.724Z,36.43
2023-05-21T16:50:01.840Z,36.60
2023-05-21T16:52:30.852Z,36.59
2023-05-21T16:54:57.533Z,36.50
2023-05-21T16:57:26.676Z,36.61
2023-05-21T16:59:53.598Z,36.93
2023-05-21T17:02:20.453Z,36.90
2023-05-21T17:04:47.897Z,36.79
2023-05-21T17:07:15.715Z,37.02
2023-05-21T17:09:42.614Z,37.12
2023-05-21T17:12:11.684Z,37.18
2023-05-21T17:14:40.388Z,36.96
2023-05-21T17:17:09.896Z,36.69
2023-05-21T17:19:37.404Z,36.54
2023-05-21T17:22:04.649Z,36.72
2023-05-21T17:24:31.361Z,37.13
2023-05-21T17:26:58.124Z,36.66
2023-05-21T17:29:24.857Z,37.02
2023-05-21T17:31:51.587Z,36.59
2023-05-21T17:34:21.340Z,36.62
2023-05-21T17:36:48.040Z,36.68
2023-05-21T17:39:14.815Z,36.86
2023-05-21T17:41:43.733Z,37.03
2023-05-21T17:44:13.732Z,36.80
2023-05-21T17:46:40.611Z,36.81
2023-05-21T17:49:08.946Z,36.83
2023-05-21T17:51:37.160Z,37.05
2023-05-21T17:54:04.683Z,37.15
2023-05-21T17:56:38.851Z,37.18
2023-05-21T17:59:12.121Z,37.20
2023-05-21T18:01:40.146Z,37.11
2023-05-21T18:04:12.298Z,37.32
2023-05-21T18:06:41.929Z,37.43
2023-05-21T18:09:10.578Z,37.50
2023-05-21T18:11:39.585Z,37.48
2023-05-21T18:14:06.279Z,37.59
2023-05-21T18:16:33.114Z,37.54
2023-05-21T18:19:05.791Z,37.88
2023-05-21T18:21:35.166Z,37.88
2023-05-21T18:24:02.648Z,37.62
2023-05-21T18:26:32.443Z,37.70
2023-05-21T18:29:01.880Z,37.31
2023-05-21T18:31:28.714Z,37.83
2023-05-21T18:33:55.472Z,37.95
2023-05-21T18:36:24.358Z,37.92
2023-05-21T18:38:53.456Z,38.04
2023-05-21T18:41:23.873Z,38.36
2023-05-21T18:43:50.629Z,38.32
2023-05-21T18:46:17.324Z,38.34
2023-05-21T18:48:44.080Z,38.84
2023-05-21T18:51:10.848Z,38.45
2023-05-21T18:53:40.523Z,39.01
2023-05-21T18:56:10.385Z,39.12
2023-05-21T18:58:38.155Z,39.13
2023-05-21T19:01:06.443Z,39.36
2023-05-21T19:03:35.564Z,39.62
2023-05-21T19:06:02.364Z,39.44
2023-05-21T19:08:29.626Z,39.68
2023-05-21T19:10:56.358Z,39.59
2023-05-21T19:13:23.538Z,39.89
2023-05-21T19:15:50.280Z,39.87
2023-05-21T19:18:17.423Z,39.92
2023-05-21T19:20:44.206Z,39.97
2023-05-21T19:23:11.118Z,40.34
2023-05-21T19:25:38.448Z,40.57
2023-05-21T19:28:05.583Z,40.42
2023-05-21T19:30:35.007Z,40.27
2023-05-21T19:33:02.082Z,40.26
2023-05-21T19:35:28.944Z,40.33
2023-05-21T19:37:59.536Z,41.04
2023-05-21T19:40:29.580Z,41.26
2023-05-21T19:43:01.125Z,41.22
2023-05-21T19:45:28.050Z,41.04
2023-05-21T19:47:54.816Z,41.27
2023-05-21T19:50:23.792Z,41.68
2023-05-21T19:52:50.842Z,41.75
2023-05-21T19:55:20.433Z,41.80
2023-05-21T19:57:47.590Z,42.04
2023-05-21T20:00:16.663Z,42.44
2023-05-21T20:02:43.617Z,43.11
2023-05-21T20:05:10.516Z,42.88
2023-05-21T20:07:39.944Z,43.36
2023-05-21T20:10:11.528Z,43.48
2023-05-21T20:12:38.546Z,43.40
2023-05-21T20:15:07.049Z,43.24
2023-05-21T20:17:39.349Z,43.57
2023-05-21T20:20:10.312Z,43.75
2023-05-21T20:22:37.178Z,43.41
2023-05-21T20:25:08.586Z,44.12
2023-05-21T20:27:35.805Z,44.58
2023-05-21T20:30:02.502Z,44.07
2023-05-21T20:32:29.200Z,44.45
2023-05-21T20:35:03.309Z,44.30
2023-05-21T20:37:33.959Z,44.77
2023-05-21T20:40:02.931Z,44.74
2023-05-21T20:42:34.429Z,44.60
2023-05-21T20:45:01.906Z,45.16
2023-05-21T20:47:31.540Z,44.93
2023-05-21T20:50:00.160Z,45.04
2023-05-21T20:52:27.098Z,44.84
2023-05-21T20:54:59.637Z,44.80
2023-05-21T20:57:27.481Z,45.17
2023-05-21T20:59:54.570Z,44.99
2023-05-21T21:02:21.734Z,45.60
2023-05-21T21:04:49.974Z,45.63
2023-05-21T21:07:20.475Z,45.91
2023-05-21T21:09:48.524Z,45.55
2023-05-21T21:12:25.792Z,46.46
2023-05-21T21:14:54.248Z,45.97
2023-05-21T21:17:21.267Z,46.04
2023-05-21T21:19:48.027Z,46.14
2023-05-21T21:22:16.087Z,46.31
2023-05-21T21:24:42.844Z,46.52
2023-05-21T21:27:09.553Z,46.07
2023-05-21T21:29:38.462Z,46.62
2023-05-21T21:32:05.819Z,46.91
2023-05-21T21:34:32.473Z,46.99
2023-05-21T21:37:01.399Z,46.34
2023-05-21T21:39:30.165Z,46.50
2023-05-21T21:41:56.917Z,47.12
2023-05-21T21:44:26.059Z,47.21
2023-05-21T21:46:55.084Z,47.40
2023-05-21T21:49:21.763Z,47.48
2023-05-21T21:51:49.074Z,47.90
2023-05-21T21:54:15.874Z,47.74
2023-05-21T21:56:43.784Z,47.88
2023-05-21T21:59:10.475Z,47.64
2023-05-21T22:01:37.317Z,48.54
2023-05-21T22:04:04.232Z,48.76
2023-05-21T22:06:31.367Z,47.91
2023-05-21T22:08:58.087Z,48.31
2023-05-21T22:11:27.038Z,49.09
2023-05-21T22:13:56.400Z,48.31
2023-05-21T22:16:25.577Z,49.36
2023-05-21T22:18:54.360Z,48.77
2023-05-21T22:21:21.565Z,49.06
2023-05-21T22:23:48.359Z,48.97
2023-05-21T22:26:15.111Z,49.29
2023-05-21T22:28:44.126Z,49.45
2023-05-21T22:31:10.812Z,49.19
2023-05-21T22:33:37.495Z,49.22
2023-05-21T22:36:04.543Z,49.22
2023-05-21T22:38:31.235Z,49.55
2023-05-21T22:41:00.182Z,49.54
2023-05-21T22:43:27.338Z,49.09
2023-05-21T22:45:54.162Z,49.20
2023-05-21T22:48:22.104Z,50.03
2023-05-21T22:50:50.251Z,49.85
2023-05-21T22:53:19.584Z,49.27
2023-05-21T22:55:48.704Z,49.85
2023-05-21T22:58:17.739Z,49.95
2023-05-21T23:00:44.572Z,49.24
2023-05-21T23:03:11.544Z,49.95
2023-05-21T23:05:40.884Z,50.17
2023-05-21T23:08:07.808Z,49.73
2023-05-21T23:10:35.557Z,49.91
2023-05-21T23:13:02.366Z,49.80
2023-05-21T23:15:29.662Z,49.72
2023-05-21T23:17:57.127Z,50.05
2023-05-21T23:20:25.964Z,49.91
2023-05-21T23:22:52.750Z,50.48
2023-05-21T23:25:22.382Z,50.04
2023-05-21T23:27:49.152Z,49.79
2023-05-21T23:30:16.186Z,49.91
2023-05-21T23:32:44.967Z,49.71
2023-05-21T23:35:11.737Z,50.57
2023-05-21T23:37:38.465Z,50.23
2023-05-21T23:40:05.793Z,50.01
2023-05-21T23:42:32.466Z,49.51
2023-05-21T23:44:59.188Z,49.97
2023-05-21T23:47:25.995Z,49.98
2023-05-21T23:49:53.123Z,49.47
2023-05-21T23:52:19.839Z,49.83
2023-05-21T23:54:47.505Z,49.71
2023-05-21T23:57:14.364Z,49.64
2023-05-21T23:59:41.141Z,49.57
